Time;durP1;ratioP1;P1;durP2;ratioP2;P2;SDS_P1;SDS_P2;PMS_P1;PMS_P2;Temp;Humidity;BMP_temperature;BMP_pressure;BME280_temperature;BME280_humidity;BME280_pressure;Samples;Min_cycle;Max_cycle;Signal;HPM_P1;HPM_P2
2022/06/29 00:00:40;;;;;;;;;;;19.60;97.40;;;;;;5045855;28;19968;-96
2022/06/29 00:03:07;;;;;;;;;;;19.50;97.40;;;;;;5049354;28;19909;-95
2022/06/29 00:05:34;;;;;;;;;;;19.50;97.50;;;;;;5045421;28;19969;-95
2022/06/29 00:08:02;;;;;;;;;;;19.50;97.50;;;;;;5048426;28;19925;-95
2022/06/29 00:10:30;;;;;;;;;;;19.50;97.50;;;;;;5045450;28;19925;-96
2022/06/29 00:12:58;;;;;;;;;;;19.50;97.50;;;;;;5045025;28;19931;-96
2022/06/29 00:15:25;;;;;;;;;;;19.50;97.40;;;;;;5046686;28;19940;-95
2022/06/29 00:17:52;;;;;;;;;;;19.50;97.40;;;;;;5046515;28;19959;-96
2022/06/29 00:20:20;;;;;;;;;;;19.50;97.50;;;;;;5046338;28;19928;-96
2022/06/29 00:22:47;;;;;;;;;;;19.40;97.40;;;;;;5047605;28;19935;-96
2022/06/29 00:25:15;;;;;;;;;;;19.40;97.40;;;;;;5046985;28;20000;-94
2022/06/29 00:27:44;;;;;;;;;;;19.40;97.40;;;;;;5026329;28;19933;-95
2022/06/29 00:30:12;;;;;;;;;;;19.50;97.50;;;;;;5026798;28;19933;-96
2022/06/29 00:32:39;;;;;;;;;;;19.40;97.40;;;;;;5045779;28;19932;-95
2022/06/29 00:35:07;;;;;;;;;;;19.40;97.40;;;;;;5027218;28;19925;-95
2022/06/29 00:37:34;;;;;;;;;;;19.40;97.50;;;;;;5030285;28;19932;-95
2022/06/29 00:40:02;;;;;;;;;;;19.30;97.40;;;;;;5041488;28;19956;-95
2022/06/29 00:42:30;;;;;;;;;;;19.30;97.50;;;;;;5042764;28;19957;-96
2022/06/29 00:44:59;;;;;;;;;;;19.30;97.50;;;;;;5040585;28;19992;-95
2022/06/29 00:47:26;;;;;;;;;;;19.20;97.50;;;;;;5045528;28;19925;-95
2022/06/29 00:49:53;;;;;;;;;;;19.30;97.70;;;;;;5027517;28;19933;-95
2022/06/29 00:52:23;;;;;;;;;;;19.30;97.50;;;;;;5042179;28;19932;-96
2022/06/29 00:54:53;;;;;;;;;;;19.30;97.50;;;;;;5029907;28;19998;-96
2022/06/29 00:57:21;;;;;;;;;;;19.30;97.50;;;;;;5030928;28;19933;-96
2022/06/29 00:59:49;;;;;;;;;;;19.20;97.50;;;;;;5027300;28;19924;-96
2022/06/29 01:02:18;;;;;;;;;;;19.20;97.80;;;;;;5026649;28;19924;-96
2022/06/29 01:04:46;;;;;;;;;;;19.20;97.50;;;;;;5046873;28;19932;-96
2022/06/29 01:07:13;;;;;;;;;;;19.20;97.50;;;;;;5029108;28;19929;-96
2022/06/29 01:09:41;;;;;;;;;;;19.20;97.50;;;;;;5045664;28;20005;-96
2022/06/29 01:12:08;;;;;;;;;;;19.10;97.50;;;;;;5027596;28;19992;-94
2022/06/29 01:14:37;;;;;;;;;;;19.10;97.60;;;;;;5027067;28;20296;-96
2022/06/29 01:17:05;;;;;;;;;;;19.10;97.50;;;;;;5044649;28;19967;-95
2022/06/29 01:19:33;;;;;;;;;;;19.10;97.50;;;;;;5040722;28;19933;-96
2022/06/29 01:22:07;;;;;;;;;;;19.10;97.50;;;;;;5044106;28;19929;-95
2022/06/29 01:24:34;;;;;;;;;;;19.10;97.40;;;;;;5029542;28;19929;-96
2022/06/29 01:27:02;;;;;;;;;;;19.00;97.30;;;;;;5040759;28;19932;-96
2022/06/29 01:29:30;;;;;;;;;;;19.00;97.30;;;;;;5025889;28;19931;-96
2022/06/29 01:31:59;;;;;;;;;;;19.00;97.30;;;;;;5039889;28;20403;-95
2022/06/29 01:34:27;;;;;;;;;;;19.00;97.20;;;;;;5041470;28;19940;-96
2022/06/29 01:36:55;;;;;;;;;;;19.00;97.20;;;;;;5048367;28;19956;-95
2022/06/29 01:39:23;;;;;;;;;;;19.00;97.30;;;;;;5026150;28;19947;-96
2022/06/29 01:41:51;;;;;;;;;;;18.90;97.20;;;;;;5041064;28;19945;-96
2022/06/29 01:44:18;;;;;;;;;;;18.90;97.20;;;;;;5043241;28;19925;-94
2022/06/29 01:46:45;;;;;;;;;;;18.90;97.30;;;;;;5028767;28;19956;-96
2022/06/29 01:49:13;;;;;;;;;;;18.90;97.30;;;;;;5029954;28;19931;-96
2022/06/29 01:51:40;;;;;;;;;;;18.90;97.30;;;;;;5044985;28;19932;-96
2022/06/29 01:54:08;;;;;;;;;;;18.90;97.20;;;;;;5045393;28;19925;-96
2022/06/29 01:56:36;;;;;;;;;;;18.90;97.20;;;;;;5040724;28;19939;-96
2022/06/29 01:59:04;;;;;;;;;;;18.90;97.20;;;;;;5039182;28;20007;-95
2022/06/29 02:01:31;;;;;;;;;;;18.80;97.10;;;;;;5042346;28;19989;-95
2022/06/29 02:03:58;;;;;;;;;;;18.80;97.10;;;;;;5042940;28;20008;-96
2022/06/29 02:06:26;;;;;;;;;;;18.80;97.10;;;;;;5042913;28;19925;-96
2022/06/29 02:08:53;;;;;;;;;;;18.80;97.20;;;;;;5042168;28;19956;-95
2022/06/29 02:11:21;;;;;;;;;;;18.80;97.10;;;;;;5042911;28;19925;-96
2022/06/29 02:13:49;;;;;;;;;;;18.80;97.10;;;;;;5023538;28;20031;-96
2022/06/29 02:16:16;;;;;;;;;;;18.70;97.10;;;;;;5045331;28;19929;-96
2022/06/29 02:18:43;;;;;;;;;;;18.70;97.10;;;;;;5030524;28;19971;-96
2022/06/29 02:21:11;;;;;;;;;;;18.70;97.10;;;;;;5026361;28;19984;-96
2022/06/29 02:23:38;;;;;;;;;;;18.70;97.00;;;;;;5047859;28;19914;-95
2022/06/29 02:26:06;;;;;;;;;;;18.70;97.00;;;;;;5049416;28;20040;-96
2022/06/29 02:28:34;;;;;;;;;;;18.70;97.10;;;;;;5045817;28;19932;-96
2022/06/29 02:36:32;;;;;;;;;;;18.60;97.00;;;;;;5047293;28;19921;-96
2022/06/29 02:39:00;;;;;;;;;;;18.60;97.00;;;;;;5026628;28;19960;-95
2022/06/29 02:41:28;;;;;;;;;;;18.50;97.00;;;;;;5044972;28;19925;-96
2022/06/29 02:43:55;;;;;;;;;;;18.60;97.10;;;;;;5048357;28;19924;-95
2022/06/29 02:46:24;;;;;;;;;;;18.50;96.90;;;;;;5048515;28;19933;-96
2022/06/29 02:48:51;;;;;;;;;;;18.50;97.00;;;;;;5050233;28;19952;-96
2022/06/29 02:51:18;;;;;;;;;;;18.50;97.00;;;;;;5042862;28;20477;-95
2022/06/29 02:53:46;;;;;;;;;;;18.40;96.90;;;;;;5029030;28;19925;-95
2022/06/29 02:56:13;;;;;;;;;;;18.50;97.00;;;;;;5029195;28;19929;-96
2022/06/29 02:58:40;;;;;;;;;;;18.50;97.00;;;;;;5022929;28;20004;-96
2022/06/29 03:01:07;;;;;;;;;;;18.40;96.90;;;;;;5030284;28;19952;-96
2022/06/29 03:03:36;;;;;;;;;;;18.40;96.90;;;;;;5029419;28;20340;-95
2022/06/29 03:06:03;;;;;;;;;;;18.40;96.90;;;;;;5047829;28;19934;-96
2022/06/29 03:08:30;;;;;;;;;;;18.40;96.90;;;;;;5044436;28;19936;-96
2022/06/29 03:10:57;;;;;;;;;;;18.40;96.90;;;;;;5049441;28;19926;-96
2022/06/29 03:13:25;;;;;;;;;;;18.40;96.90;;;;;;5034918;28;19925;-96
2022/06/29 03:15:53;;;;;;;;;;;18.30;96.80;;;;;;5032243;28;19993;-96
2022/06/29 03:18:20;;;;;;;;;;;18.30;96.80;;;;;;5052505;28;19952;-96
2022/06/29 03:20:49;;;;;;;;;;;18.30;96.90;;;;;;5051745;28;19921;-96
2022/06/29 03:23:16;;;;;;;;;;;18.30;96.90;;;;;;5050486;28;19932;-95
2022/06/29 03:25:44;;;;;;;;;;;18.30;97.10;;;;;;5032009;28;19933;-96
2022/06/29 03:28:11;;;;;;;;;;;18.30;96.90;;;;;;5034629;28;19921;-95
2022/06/29 03:30:38;;;;;;;;;;;18.20;96.90;;;;;;5048560;28;20024;-96
2022/06/29 03:33:06;;;;;;;;;;;18.20;96.80;;;;;;5029201;28;20038;-95
2022/06/29 03:35:33;;;;;;;;;;;18.20;96.80;;;;;;5047736;28;19992;-95
2022/06/29 03:38:02;;;;;;;;;;;18.20;96.90;;;;;;5027648;28;19930;-96
2022/06/29 03:40:29;;;;;;;;;;;18.20;97.00;;;;;;5053376;28;19913;-96
2022/06/29 03:42:56;;;;;;;;;;;18.20;97.10;;;;;;5031729;22;19961;-81
2022/06/29 03:45:23;;;;;;;;;;;18.10;97.00;;;;;;4999898;28;19988;-80
2022/06/29 03:47:50;;;;;;;;;;;18.10;97.00;;;;;;5012863;28;19933;-79
2022/06/29 03:50:17;;;;;;;;;;;18.10;97.10;;;;;;4995991;28;19933;-80
2022/06/29 03:52:44;;;;;;;;;;;18.10;97.10;;;;;;5001206;28;20380;-80
2022/06/29 03:55:12;;;;;;;;;;;18.10;97.00;;;;;;4984614;28;19973;-82
2022/06/29 03:57:39;;;;;;;;;;;18.10;97.00;;;;;;5002386;28;19930;-81
2022/06/29 04:00:06;;;;;;;;;;;18.00;97.10;;;;;;4995762;28;19930;-84
2022/06/29 04:02:40;;;;;;;;;;;18.00;97.10;;;;;;4988018;28;19976;-83
2022/06/29 04:05:07;;;;;;;;;;;18.00;96.90;;;;;;4997696;28;19929;-82
2022/06/29 04:07:34;;;;;;;;;;;18.00;97.00;;;;;;4993081;28;19949;-83
2022/06/29 04:10:00;;;;;;;;;;;18.00;97.00;;;;;;5001942;28;20404;-80
2022/06/29 04:12:30;;;;;;;;;;;17.90;96.80;;;;;;5006602;28;20285;-80
2022/06/29 04:14:57;;;;;;;;;;;17.90;96.70;;;;;;4994761;28;19968;-80
2022/06/29 04:17:24;;;;;;;;;;;17.80;96.50;;;;;;5012634;28;20460;-80
2022/06/29 04:19:52;;;;;;;;;;;17.70;96.70;;;;;;5008647;28;20446;-79
2022/06/29 04:22:19;;;;;;;;;;;17.70;96.90;;;;;;5007656;28;19976;-79
2022/06/29 04:24:46;;;;;;;;;;;17.60;96.90;;;;;;5007278;28;19971;-80
2022/06/29 04:27:13;;;;;;;;;;;17.60;97.10;;;;;;5007080;28;20372;-81
2022/06/29 04:29:41;;;;;;;;;;;17.50;97.00;;;;;;5006464;28;19933;-80
2022/06/29 04:32:08;;;;;;;;;;;17.50;97.20;;;;;;4999123;28;19979;-79
2022/06/29 04:34:35;;;;;;;;;;;17.50;97.20;;;;;;5008773;28;20507;-82
2022/06/29 04:37:02;;;;;;;;;;;17.50;97.30;;;;;;5005964;28;19926;-79
2022/06/29 04:39:29;;;;;;;;;;;17.50;97.30;;;;;;5004421;28;19940;-78
2022/06/29 04:41:56;;;;;;;;;;;17.50;97.40;;;;;;4988350;28;19925;-80
2022/06/29 04:44:23;;;;;;;;;;;17.50;97.40;;;;;;5002834;28;20033;-80
2022/06/29 04:46:51;;;;;;;;;;;17.50;97.50;;;;;;4986671;28;19925;-79
2022/06/29 04:49:18;;;;;;;;;;;17.50;97.50;;;;;;5002986;28;19934;-78
2022/06/29 04:51:45;;;;;;;;;;;17.40;97.50;;;;;;5001476;28;20277;-79
2022/06/29 04:54:12;;;;;;;;;;;17.40;97.60;;;;;;5004545;28;19925;-79
2022/06/29 04:56:39;;;;;;;;;;;17.40;97.50;;;;;;5006959;28;19930;-79
2022/06/29 04:59:05;;;;;;;;;;;17.40;97.50;;;;;;5007670;28;20388;-80
2022/06/29 05:01:33;;;;;;;;;;;17.40;97.40;;;;;;5003386;28;19925;-79
2022/06/29 05:04:01;;;;;;;;;;;17.40;97.60;;;;;;4993429;28;20315;-80
2022/06/29 05:06:28;;;;;;;;;;;17.40;97.70;;;;;;4986359;28;19929;-80
2022/06/29 05:08:56;;;;;;;;;;;17.40;97.80;;;;;;4989648;28;20391;-80
2022/06/29 05:11:23;;;;;;;;;;;17.40;97.70;;;;;;5002159;28;20451;-79
2022/06/29 05:13:50;;;;;;;;;;;17.40;97.80;;;;;;5006352;28;19972;-80
2022/06/29 05:16:19;;;;;;;;;;;17.40;97.90;;;;;;5005875;28;19929;-79
2022/06/29 05:18:47;;;;;;;;;;;17.40;97.90;;;;;;5005897;28;20388;-82
2022/06/29 05:21:18;;;;;;;;;;;17.40;97.90;;;;;;5005336;28;19988;-79
2022/06/29 05:23:45;;;;;;;;;;;17.30;97.90;;;;;;5009602;28;20464;-79
2022/06/29 05:26:12;;;;;;;;;;;17.40;98.00;;;;;;4999002;28;19926;-79
2022/06/29 05:28:39;;;;;;;;;;;17.40;98.00;;;;;;5004135;28;19932;-79
2022/06/29 05:31:06;;;;;;;;;;;17.40;98.00;;;;;;5006912;28;19925;-81
2022/06/29 05:33:36;;;;;;;;;;;17.40;98.10;;;;;;5004946;28;19929;-79
2022/06/29 05:36:04;;;;;;;;;;;17.40;98.00;;;;;;5006235;28;19979;-79
2022/06/29 05:38:32;;;;;;;;;;;17.40;98.00;;;;;;5006058;28;20367;-79
2022/06/29 05:41:00;;;;;;;;;;;17.40;98.10;;;;;;5005494;28;20012;-79
2022/06/29 05:43:27;;;;;;;;;;;17.40;98.00;;;;;;5002754;28;20778;-80
2022/06/29 05:45:54;;;;;;;;;;;17.40;98.00;;;;;;4999856;28;19936;-79
2022/06/29 05:48:21;;;;;;;;;;;17.40;98.00;;;;;;5004607;28;20016;-79
2022/06/29 05:50:47;;;;;;;;;;;17.40;98.10;;;;;;5004163;28;20001;-78
2022/06/29 05:53:16;;;;;;;;;;;17.40;98.50;;;;;;5003342;28;19929;-79
2022/06/29 05:55:45;;;;;;;;;;;17.40;98.20;;;;;;5001784;28;19929;-80
2022/06/29 05:58:15;;;;;;;;;;;17.40;98.30;;;;;;5006158;28;20391;-80
2022/06/29 06:00:42;;;;;;;;;;;17.40;98.20;;;;;;4997020;28;19953;-83
2022/06/29 06:03:10;;;;;;;;;;;17.40;98.30;;;;;;4989575;28;19944;-79
2022/06/29 06:05:36;;;;;;;;;;;17.40;98.40;;;;;;4990318;28;19987;-79
2022/06/29 06:08:03;;;;;;;;;;;17.30;98.60;;;;;;4986976;28;19941;-81
2022/06/29 06:10:30;;;;;;;;;;;17.40;98.70;;;;;;5002349;28;19938;-77
2022/06/29 06:12:59;;;;;;;;;;;17.40;98.70;;;;;;4994389;28;19934;-76
2022/06/29 06:15:25;;;;;;;;;;;17.40;99.10;;;;;;5001985;28;19925;-78
2022/06/29 06:17:52;;;;;;;;;;;17.40;99.50;;;;;;4996648;28;19938;-77
2022/06/29 06:20:19;;;;;;;;;;;17.40;99.70;;;;;;4989459;28;19925;-77
2022/06/29 06:22:46;;;;;;;;;;;17.40;99.60;;;;;;4998759;28;20038;-77
2022/06/29 06:25:13;;;;;;;;;;;17.40;99.60;;;;;;5001494;28;19972;-78
2022/06/29 06:27:41;;;;;;;;;;;17.50;99.80;;;;;;4998317;28;19929;-79
2022/06/29 06:30:10;;;;;;;;;;;17.40;99.70;;;;;;5001094;28;19929;-80
2022/06/29 06:32:36;;;;;;;;;;;17.50;99.70;;;;;;5000030;28;19940;-78
2022/06/29 06:35:04;;;;;;;;;;;17.50;99.60;;;;;;4998691;28;21743;-80
2022/06/29 06:37:30;;;;;;;;;;;17.50;99.60;;;;;;4998885;28;19926;-79
2022/06/29 06:42:41;;;;;;;;;;;17.60;99.90;;;;;;5006807;28;19930;-79
2022/06/29 06:45:10;;;;;;;;;;;17.60;99.90;;;;;;5007587;28;20399;-78
2022/06/29 06:47:37;;;;;;;;;;;17.60;99.90;;;;;;5007338;28;20400;-78
2022/06/29 06:50:04;;;;;;;;;;;17.60;99.90;;;;;;5011678;28;19993;-79
2022/06/29 06:52:31;;;;;;;;;;;17.60;99.80;;;;;;5005736;28;19934;-78
2022/06/29 06:54:58;;;;;;;;;;;17.70;99.80;;;;;;4987937;28;19996;-79
2022/06/29 06:57:25;;;;;;;;;;;17.70;99.90;;;;;;5010391;28;20299;-78
2022/06/29 06:59:53;;;;;;;;;;;17.70;99.90;;;;;;5005269;28;20357;-78
2022/06/29 07:02:21;;;;;;;;;;;17.70;99.90;;;;;;5009654;28;19925;-78
2022/06/29 07:04:48;;;;;;;;;;;17.70;99.80;;;;;;4987706;28;19929;-80
2022/06/29 07:07:15;;;;;;;;;;;17.70;99.70;;;;;;5011690;28;19933;-79
2022/06/29 07:09:42;;;;;;;;;;;17.70;99.80;;;;;;4989554;28;19925;-78
2022/06/29 07:12:09;;;;;;;;;;;17.70;99.80;;;;;;5007020;28;19929;-78
2022/06/29 07:14:36;;;;;;;;;;;17.80;99.80;;;;;;5007771;28;19932;-78
2022/06/29 07:17:03;;;;;;;;;;;17.80;99.70;;;;;;4992912;28;20076;-78
2022/06/29 07:19:31;;;;;;;;;;;17.80;99.50;;;;;;5006597;28;19940;-80
2022/06/29 07:21:58;;;;;;;;;;;17.80;99.50;;;;;;5009392;28;19940;-81
2022/06/29 07:24:25;;;;;;;;;;;17.80;99.60;;;;;;5004912;28;19929;-79
2022/06/29 07:26:51;;;;;;;;;;;17.80;99.70;;;;;;4994768;28;19968;-79
2022/06/29 07:29:18;;;;;;;;;;;17.80;99.60;;;;;;5009519;28;20893;-79
2022/06/29 07:31:45;;;;;;;;;;;17.90;99.70;;;;;;5008651;28;19968;-80
2022/06/29 07:34:12;;;;;;;;;;;17.90;99.80;;;;;;5009732;28;19976;-80
2022/06/29 07:36:40;;;;;;;;;;;17.90;99.90;;;;;;5011950;28;19929;-82
2022/06/29 07:39:07;;;;;;;;;;;17.90;99.90;;;;;;5006007;28;20036;-78
2022/06/29 07:41:36;;;;;;;;;;;17.90;99.90;;;;;;5007435;28;19926;-78
2022/06/29 07:44:03;;;;;;;;;;;17.90;99.90;;;;;;5006293;28;20686;-78
2022/06/29 07:46:30;;;;;;;;;;;18.00;99.90;;;;;;4989755;28;19925;-78
2022/06/29 07:48:56;;;;;;;;;;;18.00;99.90;;;;;;5004652;28;19925;-78
2022/06/29 07:51:23;;;;;;;;;;;18.00;99.90;;;;;;5005611;28;20375;-79
2022/06/29 07:53:51;;;;;;;;;;;18.00;99.90;;;;;;5004105;28;20323;-78
2022/06/29 07:56:18;;;;;;;;;;;18.00;99.90;;;;;;5005666;28;19933;-78
2022/06/29 07:58:45;;;;;;;;;;;18.00;99.90;;;;;;5003958;28;19995;-78
2022/06/29 08:01:12;;;;;;;;;;;18.00;99.90;;;;;;5006606;28;19983;-78
2022/06/29 08:03:40;;;;;;;;;;;18.00;99.90;;;;;;4989733;28;20017;-78
2022/06/29 08:06:07;;;;;;;;;;;18.10;99.90;;;;;;5004651;28;19925;-78
2022/06/29 08:08:33;;;;;;;;;;;18.10;99.90;;;;;;4987594;28;20005;-78
2022/06/29 08:11:02;;;;;;;;;;;18.10;99.90;;;;;;5008607;28;19926;-78
2022/06/29 08:13:29;;;;;;;;;;;18.10;99.90;;;;;;5006659;28;19925;-78
2022/06/29 08:15:56;;;;;;;;;;;18.20;99.90;;;;;;5002973;28;19946;-78
2022/06/29 08:18:22;;;;;;;;;;;18.10;99.90;;;;;;5011160;28;19925;-78
2022/06/29 08:20:49;;;;;;;;;;;18.10;99.90;;;;;;5000145;28;20052;-77
2022/06/29 08:23:16;;;;;;;;;;;18.20;99.90;;;;;;5004178;28;20281;-79
2022/06/29 08:25:43;;;;;;;;;;;18.20;99.90;;;;;;5007879;28;19925;-81
2022/06/29 08:28:11;;;;;;;;;;;18.20;99.90;;;;;;5010906;28;19940;-78
2022/06/29 08:30:38;;;;;;;;;;;18.20;99.90;;;;;;5004824;28;20339;-79
2022/06/29 08:33:05;;;;;;;;;;;18.30;99.90;;;;;;5003530;28;20355;-78
2022/06/29 08:35:34;;;;;;;;;;;18.30;99.90;;;;;;5003806;28;20300;-79
2022/06/29 08:38:02;;;;;;;;;;;18.30;99.90;;;;;;5001717;28;19931;-78
2022/06/29 08:40:36;;;;;;;;;;;18.30;99.90;;;;;;5009020;28;19925;-77
2022/06/29 08:43:03;;;;;;;;;;;18.40;99.90;;;;;;5002990;28;20487;-79
2022/06/29 08:45:31;;;;;;;;;;;18.40;99.90;;;;;;5005800;28;19960;-78
2022/06/29 08:47:58;;;;;;;;;;;18.40;99.90;;;;;;5004928;28;19952;-77
2022/06/29 08:50:25;;;;;;;;;;;18.40;99.90;;;;;;4999815;28;19972;-81
2022/06/29 08:52:52;;;;;;;;;;;18.40;99.90;;;;;;5003851;28;20303;-78
2022/06/29 08:55:19;;;;;;;;;;;18.40;99.90;;;;;;5003802;28;19936;-79
2022/06/29 08:57:46;;;;;;;;;;;18.50;99.90;;;;;;5002046;28;19926;-78
2022/06/29 09:00:13;;;;;;;;;;;18.50;99.90;;;;;;4999804;28;19941;-78
2022/06/29 09:02:41;;;;;;;;;;;18.50;99.90;;;;;;5007283;28;19972;-78
2022/06/29 09:05:09;;;;;;;;;;;18.50;99.90;;;;;;4990507;28;20013;-77
2022/06/29 09:07:35;;;;;;;;;;;18.50;99.90;;;;;;5002837;28;19940;-78
2022/06/29 09:10:06;;;;;;;;;;;18.60;99.90;;;;;;5004023;28;20387;-77
2022/06/29 09:12:33;;;;;;;;;;;18.60;99.90;;;;;;5010641;28;20300;-78
2022/06/29 09:15:00;;;;;;;;;;;18.60;99.90;;;;;;5002812;28;19936;-79
2022/06/29 09:17:30;;;;;;;;;;;18.70;99.90;;;;;;5004185;28;19934;-80
2022/06/29 09:19:59;;;;;;;;;;;18.70;99.90;;;;;;5002745;28;20305;-78
2022/06/29 09:22:26;;;;;;;;;;;18.70;99.90;;;;;;5002678;28;19932;-79
2022/06/29 09:24:53;;;;;;;;;;;18.70;99.90;;;;;;5004034;28;19953;-78
2022/06/29 09:27:20;;;;;;;;;;;18.70;99.90;;;;;;5001808;28;19969;-78
2022/06/29 09:29:47;;;;;;;;;;;18.80;99.90;;;;;;5003931;28;19929;-78
2022/06/29 09:32:17;;;;;;;;;;;18.80;99.90;;;;;;4982886;28;19942;-80
2022/06/29 09:34:45;;;;;;;;;;;18.80;99.90;;;;;;5005542;28;19932;-79
2022/06/29 09:37:14;;;;;;;;;;;18.90;99.90;;;;;;5005185;28;19949;-80
2022/06/29 09:39:43;;;;;;;;;;;18.90;99.90;;;;;;5004527;28;19933;-78
2022/06/29 09:42:11;;;;;;;;;;;18.90;99.90;;;;;;5004136;28;19925;-79
2022/06/29 09:44:38;;;;;;;;;;;19.00;99.90;;;;;;5003812;28;20388;-80
2022/06/29 09:47:07;;;;;;;;;;;19.00;99.90;;;;;;5007312;28;19937;-80
2022/06/29 09:49:35;;;;;;;;;;;19.00;99.90;;;;;;5001331;28;19925;-80
2022/06/29 09:52:02;;;;;;;;;;;19.00;99.90;;;;;;5004754;28;19925;-77
2022/06/29 09:54:35;;;;;;;;;;;19.10;99.90;;;;;;4990819;28;19933;-78
2022/06/29 09:57:03;;;;;;;;;;;19.10;99.90;;;;;;5001994;28;19929;-78
2022/06/29 10:05:01;;;;;;;;;;;19.30;99.90;;;;;;4988241;28;19922;-80
2022/06/29 10:07:29;;;;;;;;;;;19.40;99.90;;;;;;4988266;28;19926;-78
2022/06/29 10:09:58;;;;;;;;;;;19.50;99.90;;;;;;5004609;28;19968;-78
2022/06/29 10:15:21;;;;;;;;;;;19.50;99.90;;;;;;5010070;28;19922;-77
2022/06/29 10:17:52;;;;;;;;;;;19.50;99.90;;;;;;5010862;28;20392;-77
2022/06/29 10:20:37;;;;;;;;;;;19.50;99.90;;;;;;4997551;28;19933;-78
2022/06/29 10:23:04;;;;;;;;;;;19.50;99.90;;;;;;5005032;28;19976;-80
2022/06/29 10:25:32;;;;;;;;;;;19.70;99.90;;;;;;5003086;28;20428;-77
2022/06/29 10:28:13;;;;;;;;;;;19.80;99.90;;;;;;4997754;28;19944;-81
2022/06/29 10:30:40;;;;;;;;;;;19.80;99.90;;;;;;5005358;28;19926;-81
2022/06/29 10:33:25;;;;;;;;;;;19.80;99.90;;;;;;4994136;28;19980;-80
2022/06/29 10:35:55;;;;;;;;;;;19.80;99.90;;;;;;5007996;28;19929;-82
2022/06/29 10:38:23;;;;;;;;;;;19.80;99.90;;;;;;5005735;28;20380;-80
2022/06/29 10:43:50;;;;;;;;;;;19.90;99.90;;;;;;5046463;27;1987312;-84
2022/06/29 10:46:17;;;;;;;;;;;19.90;99.90;;;;;;5102151;28;19928;-82
2022/06/29 10:49:07;;;;;;;;;;;20.00;99.90;;;;;;5071636;28;19952;-83
2022/06/29 10:51:34;;;;;;;;;;;20.00;99.90;;;;;;5078471;28;19933;-84
2022/06/29 10:54:01;;;;;;;;;;;20.00;99.90;;;;;;5078135;28;19932;-82
2022/06/29 10:56:28;;;;;;;;;;;20.10;99.90;;;;;;5075466;28;19925;-83
2022/06/29 10:58:56;;;;;;;;;;;20.10;99.90;;;;;;5060905;28;19935;-81
2022/06/29 11:01:24;;;;;;;;;;;20.10;99.90;;;;;;5082070;28;19928;-82
2022/06/29 11:03:54;;;;;;;;;;;20.20;99.90;;;;;;5060238;28;19928;-82
2022/06/29 11:12:06;;;;;;;;;;;20.20;99.90;;;;;;5079710;28;19924;-86
2022/06/29 11:20:00;;;;;;;;;;;20.40;99.90;;;;;;5064560;28;20003;-82
2022/06/29 11:22:27;;;;;;;;;;;20.40;99.90;;;;;;5082977;28;19925;-81
2022/06/29 11:24:55;;;;;;;;;;;20.40;99.90;;;;;;5082501;28;19936;-82
2022/06/29 11:27:32;;;;;;;;;;;20.50;99.90;;;;;;5078418;28;19960;-81
2022/06/29 11:30:00;;;;;;;;;;;20.50;99.90;;;;;;5063649;28;19931;-81
2022/06/29 11:32:38;;;;;;;;;;;20.50;99.90;;;;;;5081426;28;20523;-81
2022/06/29 11:35:06;;;;;;;;;;;20.60;99.90;;;;;;5084099;28;19954;-81
2022/06/29 11:37:33;;;;;;;;;;;20.60;99.90;;;;;;5078441;28;19924;-81
2022/06/29 11:40:00;;;;;;;;;;;20.60;99.90;;;;;;5087574;28;20012;-82
2022/06/29 11:45:19;;;;;;;;;;;20.70;99.90;;;;;;5079955;28;20009;-82
2022/06/29 11:47:53;;;;;;;;;;;20.70;99.90;;;;;;5066033;28;20330;-82
2022/06/29 11:50:20;;;;;;;;;;;20.80;99.90;;;;;;5083227;28;19940;-82
2022/06/29 11:52:49;;;;;;;;;;;20.80;99.90;;;;;;5076511;28;19932;-83
2022/06/29 11:55:16;;;;;;;;;;;20.80;99.90;;;;;;5058373;28;19931;-82
2022/06/29 11:57:43;;;;;;;;;;;20.80;99.90;;;;;;5072348;28;19940;-81
2022/06/29 12:00:13;;;;;;;;;;;20.90;99.90;;;;;;5070868;28;20326;-82
2022/06/29 12:02:42;;;;;;;;;;;20.90;99.90;;;;;;5050737;28;19939;-82
2022/06/29 12:05:09;;;;;;;;;;;20.90;99.90;;;;;;5052456;28;19931;-81
2022/06/29 12:07:35;;;;;;;;;;;21.00;99.90;;;;;;5053251;28;19985;-82
2022/06/29 12:10:02;;;;;;;;;;;21.00;99.90;;;;;;5049470;28;19932;-84
2022/06/29 12:12:30;;;;;;;;;;;21.10;99.90;;;;;;5064672;28;20314;-83
2022/06/29 12:14:56;;;;;;;;;;;21.20;99.90;;;;;;5062489;28;19943;-82
2022/06/29 12:17:23;;;;;;;;;;;21.20;99.90;;;;;;5048271;28;19933;-82
2022/06/29 12:19:51;;;;;;;;;;;21.20;99.90;;;;;;5060878;28;19925;-82
2022/06/29 12:22:19;;;;;;;;;;;21.20;99.90;;;;;;5064145;28;20295;-82
2022/06/29 12:24:46;;;;;;;;;;;21.30;99.90;;;;;;5036420;28;19932;-80
2022/06/29 12:27:13;;;;;;;;;;;21.30;99.90;;;;;;5059952;28;20406;-82
2022/06/29 12:29:40;;;;;;;;;;;21.40;99.90;;;;;;5065756;28;20007;-81
2022/06/29 12:32:07;;;;;;;;;;;21.40;99.90;;;;;;5062165;28;19929;-83
2022/06/29 12:34:34;;;;;;;;;;;21.50;99.90;;;;;;5062418;28;19998;-82
2022/06/29 12:37:03;;;;;;;;;;;21.50;99.90;;;;;;5042995;28;19928;-82
2022/06/29 12:39:30;;;;;;;;;;;21.50;99.90;;;;;;5051153;28;20395;-80
2022/06/29 12:41:57;;;;;;;;;;;21.50;99.90;;;;;;5068747;28;19933;-83
2022/06/29 12:44:24;;;;;;;;;;;21.60;99.90;;;;;;5043909;28;19925;-79
2022/06/29 12:46:52;;;;;;;;;;;21.60;99.90;;;;;;5067172;28;19932;-82
2022/06/29 12:49:19;;;;;;;;;;;21.60;99.90;;;;;;5067093;28;19925;-81
2022/06/29 12:51:46;;;;;;;;;;;21.60;99.90;;;;;;5043608;28;19980;-79
2022/06/29 12:54:14;;;;;;;;;;;21.70;99.90;;;;;;5043886;28;20024;-81
2022/06/29 12:56:41;;;;;;;;;;;21.70;99.90;;;;;;5067487;28;19928;-80
2022/06/29 12:59:08;;;;;;;;;;;21.70;99.90;;;;;;5064582;28;19928;-80
2022/06/29 13:01:35;;;;;;;;;;;21.70;99.90;;;;;;5061567;28;20054;-80
2022/06/29 13:04:02;;;;;;;;;;;21.70;99.90;;;;;;5046255;28;19933;-80
2022/06/29 13:06:29;;;;;;;;;;;21.80;99.90;;;;;;5061960;28;19925;-79
2022/06/29 13:08:56;;;;;;;;;;;21.80;99.90;;;;;;5065105;28;19935;-79
2022/06/29 13:11:24;;;;;;;;;;;21.80;99.90;;;;;;5046430;28;19967;-79
2022/06/29 13:13:51;;;;;;;;;;;21.80;99.90;;;;;;5064238;28;20292;-78
2022/06/29 13:16:18;;;;;;;;;;;21.80;99.90;;;;;;5061901;28;19967;-80
2022/06/29 13:18:45;;;;;;;;;;;21.90;99.90;;;;;;5054509;28;19959;-78
2022/06/29 13:21:12;;;;;;;;;;;21.90;99.90;;;;;;5043786;28;20007;-78
2022/06/29 13:23:39;;;;;;;;;;;21.90;99.90;;;;;;5057704;28;19950;-79
2022/06/29 13:26:07;;;;;;;;;;;21.90;99.90;;;;;;5060602;28;19935;-79
2022/06/29 13:28:38;;;;;;;;;;;22.00;99.90;;;;;;5044810;28;20015;-79
2022/06/29 13:31:05;;;;;;;;;;;22.00;99.90;;;;;;5044814;28;19924;-80
2022/06/29 13:33:32;;;;;;;;;;;22.00;99.90;;;;;;5046826;28;19925;-80
2022/06/29 13:35:59;;;;;;;;;;;22.00;99.90;;;;;;5061606;28;20354;-80
2022/06/29 13:38:26;;;;;;;;;;;22.10;99.90;;;;;;5061063;28;19932;-80
2022/06/29 13:40:54;;;;;;;;;;;22.10;99.90;;;;;;5043212;28;19925;-79
2022/06/29 13:43:21;;;;;;;;;;;22.10;99.90;;;;;;5059873;28;19954;-79
2022/06/29 13:45:50;;;;;;;;;;;22.20;99.90;;;;;;5070767;28;19928;-79
2022/06/29 13:48:16;;;;;;;;;;;22.20;99.90;;;;;;5062630;28;19928;-80
2022/06/29 13:50:44;;;;;;;;;;;22.20;99.90;;;;;;5066587;28;19929;-79
2022/06/29 13:53:11;;;;;;;;;;;22.30;99.90;;;;;;5067455;28;19988;-79
2022/06/29 13:55:38;;;;;;;;;;;22.30;99.90;;;;;;5044932;28;19929;-79
2022/06/29 13:58:06;;;;;;;;;;;22.30;99.90;;;;;;5061385;28;20385;-79
2022/06/29 14:00:34;;;;;;;;;;;22.30;99.90;;;;;;5064621;28;19931;-79
2022/06/29 14:03:03;;;;;;;;;;;22.30;99.90;;;;;;5066679;28;19925;-79
2022/06/29 14:05:30;;;;;;;;;;;22.40;99.90;;;;;;5052560;28;19924;-79
2022/06/29 14:07:57;;;;;;;;;;;22.40;99.90;;;;;;5042126;28;20466;-80
2022/06/29 14:10:24;;;;;;;;;;;22.40;99.90;;;;;;5065740;28;19925;-79
2022/06/29 14:12:51;;;;;;;;;;;22.40;99.90;;;;;;5061041;28;20386;-79
2022/06/29 14:15:18;;;;;;;;;;;22.40;99.90;;;;;;5047595;28;19969;-79
2022/06/29 14:17:44;;;;;;;;;;;22.50;99.90;;;;;;5066377;28;19935;-80
2022/06/29 14:20:13;;;;;;;;;;;22.50;99.90;;;;;;5050890;28;19932;-80
2022/06/29 14:22:40;;;;;;;;;;;22.50;99.90;;;;;;5056718;28;19944;-79
2022/06/29 14:25:07;;;;;;;;;;;22.50;99.90;;;;;;5052412;28;19971;-80
2022/06/29 14:27:34;;;;;;;;;;;22.60;99.90;;;;;;5064460;28;19928;-79
2022/06/29 14:30:01;;;;;;;;;;;22.60;99.90;;;;;;5065453;28;19931;-79
2022/06/29 14:32:28;;;;;;;;;;;22.60;99.90;;;;;;5057891;28;19925;-79
2022/06/29 14:34:55;;;;;;;;;;;22.60;99.90;;;;;;5066570;28;19955;-79
2022/06/29 14:37:26;;;;;;;;;;;22.70;99.90;;;;;;5064747;28;19964;-80
2022/06/29 14:39:53;;;;;;;;;;;22.70;99.90;;;;;;5045707;28;19991;-79
2022/06/29 14:42:20;;;;;;;;;;;22.70;99.90;;;;;;5064419;28;19982;-79
2022/06/29 14:44:47;;;;;;;;;;;22.80;99.90;;;;;;5065060;28;20383;-79
2022/06/29 14:47:13;;;;;;;;;;;22.80;99.90;;;;;;5068170;28;19936;-79
2022/06/29 14:49:40;;;;;;;;;;;22.80;99.90;;;;;;5060473;28;19975;-79
2022/06/29 14:52:07;;;;;;;;;;;22.80;99.90;;;;;;5045903;28;20024;-79